Time;durP1;ratioP1;P1;durP2;ratioP2;P2;SDS_P1;SDS_P2;PMS_P1;PMS_P2;Temp;Humidity;BMP_temperature;BMP_pressure;BME280_temperature;BME280_humidity;BME280_pressure;Samples;Min_cycle;Max_cycle;Signal;HPM_P1;HPM_P2
2023/06/19 06:50:31;;;;;;;;;;;23.50;92.90;;;;;;7405324;19;19979;-81
2023/06/19 06:53:16;;;;;;;;;;;23.70;92.70;;;;;;7402121;19;19910;-80
2023/06/19 06:58:33;;;;;;;;;;;23.70;92.30;;;;;;7377850;19;19958;-79
2023/06/19 07:13:01;;;;;;;;;;;23.80;91.80;;;;;;7419767;19;19915;-77
2023/06/19 07:15:30;;;;;;;;;;;23.90;91.60;;;;;;7392363;19;19932;-78
2023/06/19 07:17:58;;;;;;;;;;;23.90;91.50;;;;;;7394372;19;19918;-77
2023/06/19 07:20:27;;;;;;;;;;;23.80;91.50;;;;;;7418250;19;20000;-79
2023/06/19 07:22:56;;;;;;;;;;;23.80;91.80;;;;;;7400810;19;19907;-78
2023/06/19 07:25:25;;;;;;;;;;;23.80;91.50;;;;;;7394132;19;20228;-78
2023/06/19 07:27:53;;;;;;;;;;;23.70;91.70;;;;;;7393411;19;20219;-78
2023/06/19 07:30:33;;;;;;;;;;;23.70;91.80;;;;;;7402520;19;19915;-78
2023/06/19 07:33:01;;;;;;;;;;;23.70;91.90;;;;;;7405033;19;19907;-79
2023/06/19 07:35:31;;;;;;;;;;;23.70;91.70;;;;;;7424481;19;19922;-79
2023/06/19 07:37:59;;;;;;;;;;;23.80;92.00;;;;;;7395927;19;20551;-77
2023/06/19 07:40:28;;;;;;;;;;;24.00;91.90;;;;;;7395858;19;20258;-77
2023/06/19 07:43:04;;;;;;;;;;;24.10;91.60;;;;;;7400166;19;20076;-78
2023/06/19 07:45:40;;;;;;;;;;;24.30;91.40;;;;;;7406314;19;19967;-80
2023/06/19 07:48:09;;;;;;;;;;;24.40;91.10;;;;;;7406260;19;19907;-79
2023/06/19 07:50:39;;;;;;;;;;;24.40;90.80;;;;;;7430730;19;19915;-82
2023/06/19 07:53:09;;;;;;;;;;;24.40;90.70;;;;;;7405528;19;19911;-79
2023/06/19 07:58:53;;;;;;;;;;;24.30;90.70;;;;;;7408636;19;19919;-82
2023/06/19 08:01:27;;;;;;;;;;;24.30;90.70;;;;;;7408401;19;19914;-81
2023/06/19 08:03:56;;;;;;;;;;;24.30;91.10;;;;;;7406856;19;19907;-79
2023/06/19 08:06:24;;;;;;;;;;;24.30;91.00;;;;;;7400127;19;19964;-78
2023/06/19 08:08:53;;;;;;;;;;;24.30;91.20;;;;;;7395267;19;19915;-77
2023/06/19 08:11:21;;;;;;;;;;;24.30;91.30;;;;;;7419387;19;19959;-78
2023/06/19 08:13:50;;;;;;;;;;;24.30;91.20;;;;;;7398930;19;20163;-78
2023/06/19 08:16:18;;;;;;;;;;;24.30;91.20;;;;;;7391965;19;19930;-77
2023/06/19 08:18:51;;;;;;;;;;;24.30;91.20;;;;;;7394684;19;19971;-78
2023/06/19 08:21:21;;;;;;;;;;;24.20;91.40;;;;;;7395684;19;19968;-78
2023/06/19 08:23:49;;;;;;;;;;;24.20;91.20;;;;;;7414616;19;20396;-79
2023/06/19 08:26:19;;;;;;;;;;;24.10;91.10;;;;;;7394029;19;19907;-78
2023/06/19 08:28:50;;;;;;;;;;;24.10;91.30;;;;;;7401817;19;19915;-80
2023/06/19 08:31:40;;;;;;;;;;;24.10;91.50;;;;;;7398800;19;19919;-81
2023/06/19 08:34:12;;;;;;;;;;;24.10;91.50;;;;;;7404108;19;19910;-79
2023/06/19 08:36:43;;;;;;;;;;;24.20;91.30;;;;;;7405717;19;19941;-79
2023/06/19 08:39:11;;;;;;;;;;;24.20;91.20;;;;;;7420332;19;19907;-79
2023/06/19 08:41:41;;;;;;;;;;;24.10;91.10;;;;;;7440085;19;19903;-77
2023/06/19 08:44:09;;;;;;;;;;;24.10;91.40;;;;;;7402628;19;19935;-78
2023/06/19 08:46:40;;;;;;;;;;;24.10;91.40;;;;;;7409688;19;19919;-77
2023/06/19 08:49:10;;;;;;;;;;;24.10;91.20;;;;;;7399719;19;20522;-77
2023/06/19 08:51:41;;;;;;;;;;;24.10;91.30;;;;;;7397745;19;19915;-77
2023/06/19 08:54:10;;;;;;;;;;;24.10;91.50;;;;;;7402225;19;19945;-79
2023/06/19 08:56:39;;;;;;;;;;;24.30;91.40;;;;;;7431854;19;19911;-78
2023/06/19 09:02:12;;;;;;;;;;;24.30;91.20;;;;;;7403399;19;19975;-80
2023/06/19 09:04:40;;;;;;;;;;;24.30;91.70;;;;;;7399903;19;19907;-79
2023/06/19 09:07:13;;;;;;;;;;;24.30;91.20;;;;;;7400988;19;19910;-80
2023/06/19 09:09:49;;;;;;;;;;;24.40;91.40;;;;;;7401151;19;19914;-80
2023/06/19 09:12:18;;;;;;;;;;;24.50;91.50;;;;;;7401674;19;19915;-80
2023/06/19 09:14:51;;;;;;;;;;;24.60;91.40;;;;;;7423060;19;19947;-80
2023/06/19 09:17:20;;;;;;;;;;;24.80;91.40;;;;;;7398096;19;19911;-81
2023/06/19 09:19:53;;;;;;;;;;;25.10;91.10;;;;;;7401850;19;19907;-79
2023/06/19 09:22:24;;;;;;;;;;;25.20;90.80;;;;;;7404419;19;19924;-80
2023/06/19 09:24:53;;;;;;;14.95;8.63;;;25.30;90.50;;;;;;7403608;19;20224;-80
2023/06/19 09:27:23;;;;;;;15.65;8.75;;;25.30;89.50;;;;;;7392985;19;20007;-80
2023/06/19 09:30:01;;;;;;;25.35;8.57;;;25.30;89.80;;;;;;7414743;19;20003;-80
2023/06/19 09:32:31;;;;;;;13.73;7.45;;;25.40;89.90;;;;;;7388791;19;20019;-79
2023/06/19 09:35:04;;;;;;;12.10;7.35;;;25.60;89.50;;;;;;7387293;19;20009;-80
2023/06/19 09:37:46;;;;;;;9.70;6.38;;;25.80;87.90;;;;;;7385041;19;19999;-80
2023/06/19 09:40:18;;;;;;;16.40;6.75;;;26.00;88.00;;;;;;7388895;19;20053;-80
2023/06/19 09:42:57;;;;;;;12.30;6.05;;;26.30;87.10;;;;;;7390064;19;20010;-80
2023/06/19 09:45:30;;;;;;;12.00;7.13;;;26.60;86.10;;;;;;7382921;19;20003;-78
2023/06/19 09:48:00;;;;;;;11.77;5.53;;;26.80;85.30;;;;;;7384537;19;19998;-78
2023/06/19 09:50:31;;;;;;;11.32;5.55;;;26.90;82.60;;;;;;7406102;19;20003;-74
2023/06/19 09:53:04;;;;;;;8.82;5.55;;;27.00;79.70;;;;;;7379213;19;20015;-74
2023/06/19 09:55:33;;;;;;;13.73;5.85;;;26.90;80.20;;;;;;7378846;19;20283;-74
2023/06/19 09:58:05;;;;;;;7.10;5.28;;;27.00;81.90;;;;;;7378994;19;20007;-73
2023/06/19 10:00:35;;;;;;;11.40;6.88;;;27.20;80.90;;;;;;7380024;19;20010;-72
2023/06/19 10:03:05;;;;;;;12.13;7.07;;;27.30;80.00;;;;;;7378127;19;20385;-73
2023/06/19 10:05:35;;;;;;;10.23;6.40;;;27.30;79.50;;;;;;7401722;19;20006;-73
2023/06/19 10:08:08;;;;;;;11.67;7.20;;;27.30;79.60;;;;;;7379148;19;20026;-73
2023/06/19 10:10:37;;;;;;;10.40;6.55;;;27.30;79.10;;;;;;7378541;19;20258;-74
2023/06/19 10:13:15;;;;;;;10.23;6.38;;;27.20;79.50;;;;;;7379619;19;20006;-73
2023/06/19 10:15:47;;;;;;;10.25;5.88;;;27.00;80.80;;;;;;7378263;19;20015;-73
2023/06/19 10:18:18;;;;;;;12.07;6.40;;;27.00;81.90;;;;;;7377145;19;20006;-74
2023/06/19 10:20:47;;;;;;;;;;;27.00;81.60;;;;;;7401150;19;20017;-73
2023/06/19 10:23:21;;;;;;;9.55;5.88;;;27.00;80.30;;;;;;7378164;19;19906;-75
2023/06/19 10:25:50;;;;;;;;;;;27.00;79.90;;;;;;7378770;19;19999;-73
2023/06/19 10:28:19;;;;;;;;;;;27.00;79.10;;;;;;7379459;19;19931;-73
2023/06/19 10:30:47;;;;;;;;;;;27.10;78.80;;;;;;7379780;19;20006;-74
2023/06/19 10:33:16;;;;;;;;;;;27.20;79.40;;;;;;7379720;19;19921;-73
2023/06/19 10:35:44;;;;;;;;;;;27.30;79.70;;;;;;7398653;19;19915;-73
2023/06/19 10:38:13;;;;;;;;;;;27.50;79.60;;;;;;7376478;19;20193;-72
2023/06/19 10:40:44;;;;;;;;;;;27.60;79.00;;;;;;7379179;19;19915;-76
2023/06/19 10:43:13;;;;;;;;;;;27.90;78.00;;;;;;7378375;19;19915;-75
2023/06/19 10:45:42;;;;;;;;;;;28.10;76.50;;;;;;7379187;19;19924;-74
2023/06/19 10:48:11;;;;;;;;;;;28.20;76.50;;;;;;7379917;19;19924;-74
2023/06/19 10:50:44;;;;;;;;;;;28.30;76.40;;;;;;7399542;19;19914;-74
2023/06/19 10:53:12;;;;;;;;;;;28.30;76.10;;;;;;7378535;19;19929;-73
2023/06/19 10:55:43;;;;;;;;;;;28.40;75.80;;;;;;7378910;19;19903;-75
2023/06/19 10:58:13;;;;;;;;;;;28.40;74.50;;;;;;7388674;19;19963;-78
2023/06/19 11:01:16;;;;;;;;;;;;;;;;;;;;;
2023/06/19 11:03:44;;;;;;;;;;;28.40;74.00;;;;;;7402110;19;20019;-77
2023/06/19 11:06:13;;;;;;;;;;;28.40;73.10;;;;;;7378590;19;20222;-75
2023/06/19 12:20:06;;;;;;;;;;;27.40;76.40;;;;;;7302153;19;20153;-81
2023/06/19 12:28:53;;;;;;;;;;;27.10;81.10;;;;;;7381476;19;19922;-79
2023/06/19 12:43:05;;;;;;;;;;;26.90;80.90;;;;;;7408085;19;19910;-81
2023/06/19 12:57:32;;;;;;;;;;;26.50;83.50;;;;;;7389913;19;19915;-80
2023/06/19 13:23:36;;;;;;;;;;;25.90;96.30;;;;;;7364793;19;19920;-80
2023/06/19 13:26:04;;;;;;;;;;;25.90;95.90;;;;;;7402309;19;19911;-79
2023/06/19 13:28:51;;;;;;;;;;;26.00;96.40;;;;;;7385010;19;19911;-81
2023/06/19 16:00:24;;;;;;;22.02;10.77;;;27.40;93.20;;;;;;7410887;19;20805;-74
2023/06/19 16:02:56;;;;;;;21.55;7.75;;;27.30;94.30;;;;;;7438571;19;20027;-74
2023/06/19 16:05:45;;;;;;;12.65;8.63;;;27.30;93.40;;;;;;7419236;19;20003;-74
2023/06/19 16:08:29;;;;;;;;;;;;;;;;;;;;;
2023/06/19 16:11:09;;;;;;;12.85;7.60;;;27.30;92.20;;;;;;7422068;19;20002;-75
2023/06/19 16:13:59;;;;;;;;;;;27.50;91.90;;;;;;7418749;19;20009;-75
2023/06/19 16:17:06;;;;;;;;;;;;;;;;;;;;;
2023/06/19 16:20:21;;;;;;;13.82;7.70;;;27.50;91.00;;;;;;7416181;19;20017;-76
2023/06/19 16:23:35;;;;;;;13.32;8.40;;;27.60;90.70;;;;;;7416023;19;20009;-78
2023/06/19 16:26:08;;;;;;;;;;;27.60;90.30;;;;;;7416617;19;20381;-77
2023/06/19 16:28:59;;;;;;;16.15;9.90;;;27.60;90.00;;;;;;7416613;19;19906;-76
2023/06/19 16:31:43;;;;;;;14.23;7.88;;;27.50;90.20;;;;;;7417051;19;20010;-77
2023/06/19 16:34:26;;;;;;;13.02;7.78;;;27.50;90.40;;;;;;7411778;19;20408;-77
2023/06/19 16:37:02;;;;;;;15.85;12.07;;;27.60;89.90;;;;;;7418255;19;20046;-76
2023/06/19 16:39:47;;;;;;;14.35;8.20;;;27.60;88.60;;;;;;7415219;19;20290;-76
2023/06/19 16:42:32;;;;;;;13.02;7.57;;;27.80;88.80;;;;;;7437287;19;20010;-77
2023/06/19 16:45:32;;;;;;;10.07;5.90;;;27.80;88.30;;;;;;7418642;19;20005;-78
2023/06/19 17:35:59;;;;;;;11.23;5.55;;;30.70;77.50;;;;;;7338653;19;20010;-72
2023/06/19 17:38:30;;;;;;;12.82;6.00;;;30.30;77.90;;;;;;7384387;19;20009;-74
2023/06/19 17:41:03;;;;;;;12.40;5.78;;;30.00;78.70;;;;;;7384579;19;20078;-78
2023/06/19 17:43:35;;;;;;;8.73;6.65;;;29.80;78.70;;;;;;7383959;19;20078;-77
2023/06/19 17:46:04;;;;;;;40.53;24.85;;;29.50;79.10;;;;;;7383342;19;20306;-76
2023/06/19 17:48:33;;;;;;;148.05;103.85;;;29.20;79.60;;;;;;7381467;19;20022;-75
2023/06/19 17:51:07;;;;;;;45.42;28.00;;;29.00;81.00;;;;;;7402620;19;20035;-77
2023/06/19 17:57:02;;;;;;;12.15;7.22;;;28.50;82.20;;;;;;7406000;19;19993;-78
2023/06/19 18:00:09;;;;;;;17.90;15.50;;;28.30;82.90;;;;;;7357650;19;20006;-79
2023/06/19 18:05:18;;;;;;;9.30;7.72;;;28.10;83.60;;;;;;7382252;19;20033;-77
2023/06/19 18:10:31;;;;;;;181.45;33.70;;;27.90;84.00;;;;;;7383859;19;20367;-76
2023/06/19 18:13:15;;;;;;;127.65;21.95;;;27.90;84.10;;;;;;7382761;19;19999;-77
2023/06/19 18:15:44;;;;;;;263.10;46.90;;;27.80;84.50;;;;;;7382182;19;20025;-76
2023/06/19 18:18:12;;;;;;;45.72;14.20;;;27.70;84.80;;;;;;7405706;19;20017;-75
2023/06/19 18:20:41;;;;;;;33.58;10.52;;;27.70;85.20;;;;;;7382826;19;20035;-77
2023/06/19 18:23:14;;;;;;;19.20;8.15;;;27.60;86.10;;;;;;7380920;19;20062;-77
2023/06/19 18:25:43;;;;;;;12.30;7.93;;;27.60;85.30;;;;;;7383460;19;20011;-76
2023/06/19 18:28:17;;;;;;;15.98;8.20;;;27.50;85.70;;;;;;7388345;19;20030;-79
2023/06/19 18:31:00;;;;;;;14.73;7.85;;;27.50;85.80;;;;;;7386064;19;20031;-77
2023/06/19 18:33:42;;;;;;;10.32;6.85;;;27.50;85.80;;;;;;7385572;19;20011;-78
2023/06/19 18:36:47;;;;;;;9.93;7.25;;;27.50;86.00;;;;;;7405333;19;20011;-79
2023/06/19 18:39:24;;;;;;;12.50;7.90;;;27.40;86.10;;;;;;7385869;19;20051;-77
2023/06/19 18:41:54;;;;;;;21.67;8.02;;;27.30;86.30;;;;;;7413427;19;20015;-78
2023/06/19 18:44:23;;;;;;;23.77;9.15;;;27.30;86.80;;;;;;7388048;19;20011;-77
2023/06/19 18:46:52;;;;;;;12.82;6.93;;;27.20;87.10;;;;;;7386819;19;20003;-74
2023/06/19 18:49:23;;;;;;;19.95;8.82;;;27.20;87.30;;;;;;7385502;19;20043;-77
2023/06/19 18:51:52;;;;;;;14.90;8.05;;;27.10;88.20;;;;;;7381847;19;19999;-76
2023/06/19 18:54:23;;;;;;;12.52;8.52;;;27.10;88.00;;;;;;7402438;19;20006;-75
2023/06/19 18:57:01;;;;;;;94.15;59.35;;;27.00;88.40;;;;;;7381971;19;20031;-78
2023/06/19 18:59:39;;;;;;;472.52;321.10;;;27.00;88.60;;;;;;7381206;19;20007;-77
2023/06/19 19:02:11;;;;;;;56.47;32.03;;;26.90;88.80;;;;;;7381567;19;20007;-76
2023/06/19 19:04:41;;;;;;;17.65;9.38;;;26.90;88.80;;;;;;7381656;19;20013;-76
2023/06/19 19:07:28;;;;;;;14.75;8.25;;;26.90;88.80;;;;;;7388197;19;20018;-78
2023/06/19 19:09:59;;;;;;;45.10;21.80;;;26.80;89.00;;;;;;7380157;19;20018;-76
2023/06/19 19:12:28;;;;;;;17.20;8.73;;;26.80;89.70;;;;;;7378961;19;20011;-75
2023/06/19 19:14:56;;;;;;;118.13;79.47;;;26.70;89.60;;;;;;7402521;19;20022;-75
2023/06/19 19:17:25;;;;;;;152.07;111.35;;;26.80;89.80;;;;;;7380753;19;20264;-76
2023/06/19 19:19:56;;;;;;;16.42;11.38;;;26.70;89.80;;;;;;7379343;19;20237;-78
2023/06/19 19:22:26;;;;;;;96.97;57.40;;;26.70;89.90;;;;;;7379307;19;20020;-77
2023/06/19 19:24:54;;;;;;;47.22;28.10;;;26.70;90.00;;;;;;7380540;19;20014;-74
2023/06/19 19:27:26;;;;;;;14.75;10.57;;;26.70;90.10;;;;;;7379951;19;20015;-74
2023/06/19 19:29:55;;;;;;;75.18;50.47;;;26.60;90.10;;;;;;7400907;19;20383;-75
2023/06/19 19:32:23;;;;;;;135.35;84.15;;;26.60;90.20;;;;;;7381359;19;20010;-74
2023/06/19 19:34:55;;;;;;;15.75;10.35;;;26.60;90.20;;;;;;7382436;19;20003;-73
2023/06/19 19:37:25;;;;;;;13.98;8.27;;;26.60;90.30;;;;;;7382634;19;20007;-74
2023/06/19 19:39:56;;;;;;;12.52;8.05;;;26.50;90.40;;;;;;7382437;19;20003;-75
2023/06/19 19:42:28;;;;;;;43.97;26.58;;;26.50;90.50;;;;;;7388215;19;20103;-74
2023/06/19 19:44:58;;;;;;;20.00;10.63;;;26.50;90.60;;;;;;7404613;19;20002;-77
2023/06/19 19:47:27;;;;;;;39.22;18.00;;;26.50;90.70;;;;;;7381556;19;20062;-76
2023/06/19 19:49:56;;;;;;;20.58;10.82;;;26.40;90.80;;;;;;7381211;19;20007;-75
2023/06/19 19:52:34;;;;;;;18.63;8.02;;;26.40;90.90;;;;;;7383214;19;20074;-77
2023/06/19 19:55:03;;;;;;;57.83;38.30;;;26.40;91.10;;;;;;7384341;19;20006;-77
2023/06/19 19:57:34;;;;;;;56.67;35.22;;;26.40;91.10;;;;;;7380034;19;19999;-76
2023/06/19 20:00:03;;;;;;;20.75;11.50;;;26.40;91.10;;;;;;7400614;19;20382;-76
2023/06/19 20:02:39;;;;;;;14.82;8.73;;;26.40;91.10;;;;;;7379708;19;20111;-78
2023/06/19 20:05:15;;;;;;;219.30;142.75;;;26.40;91.20;;;;;;7379865;19;20006;-78
2023/06/19 20:07:44;;;;;;;217.18;151.25;;;26.40;91.30;;;;;;7379722;19;20007;-74
2023/06/19 20:10:13;;;;;;;50.17;28.90;;;26.40;91.40;;;;;;7379274;19;20007;-74
2023/06/19 20:12:44;;;;;;;17.33;9.02;;;26.30;91.40;;;;;;7378880;19;20023;-75
2023/06/19 20:15:14;;;;;;;22.02;9.10;;;26.30;91.50;;;;;;7400126;19;20007;-75
2023/06/19 20:17:43;;;;;;;13.20;9.38;;;26.30;91.40;;;;;;7379421;19;20011;-75
2023/06/19 20:20:35;;;;;;;15.00;7.97;;;26.30;91.40;;;;;;7382638;19;20059;-77
2023/06/19 20:23:04;;;;;;;10.77;7.60;;;26.20;91.30;;;;;;7381320;19;20003;-76
2023/06/19 20:25:36;;;;;;;11.60;6.35;;;26.20;91.20;;;;;;7380515;19;20011;-77
2023/06/19 20:28:11;;;;;;;17.30;7.95;;;26.20;91.10;;;;;;7380509;19;20054;-77
2023/06/19 20:30:43;;;;;;;13.95;6.88;;;26.10;91.10;;;;;;7384866;19;20010;-78
2023/06/19 20:33:11;;;;;;;12.57;5.75;;;26.10;90.80;;;;;;7400792;19;20007;-77
2023/06/19 20:35:40;;;;;;;9.85;5.85;;;26.10;90.80;;;;;;7384505;19;20238;-76
2023/06/19 20:40:50;;;;;;;11.52;5.63;;;26.00;90.50;;;;;;7381173;19;20011;-75
2023/06/19 20:43:21;;;;;;;9.18;5.43;;;26.00;90.40;;;;;;7383602;19;20007;-75
2023/06/19 20:45:50;;;;;;;8.32;5.47;;;26.00;90.40;;;;;;7386042;19;20029;-77
2023/06/19 20:48:19;;;;;;;14.90;5.65;;;26.00;90.50;;;;;;7407893;19;20023;-75
2023/06/19 20:50:49;;;;;;;11.88;7.38;;;26.00;90.50;;;;;;7385512;19;20007;-75
2023/06/19 20:53:18;;;;;;;15.95;8.35;;;25.90;90.50;;;;;;7384920;19;20015;-76
2023/06/19 20:55:50;;;;;;;11.43;6.78;;;25.90;90.60;;;;;;7387591;19;20003;-77
2023/06/19 20:58:26;;;;;;;154.77;104.43;;;26.00;90.70;;;;;;7390587;19;20006;-77
2023/06/19 21:00:55;;;;;;;128.98;80.32;;;25.90;90.70;;;;;;7388372;19;19999;-75
2023/06/19 21:03:26;;;;;;;24.75;14.30;;;25.90;90.80;;;;;;7385814;19;20007;-76
2023/06/19 21:05:56;;;;;;;15.32;8.73;;;25.80;90.90;;;;;;7405611;19;20006;-77
2023/06/19 21:08:29;;;;;;;11.43;5.15;;;25.90;90.90;;;;;;7383760;19;20075;-75
2023/06/19 21:10:58;;;;;;;8.10;4.95;;;25.80;90.90;;;;;;7384635;19;20066;-73
2023/06/19 21:13:30;;;;;;;7.28;4.00;;;25.80;90.80;;;;;;7382549;19;20002;-75
2023/06/19 21:15:58;;;;;;;11.48;5.15;;;25.80;90.70;;;;;;7384793;19;20011;-74
2023/06/19 21:18:27;;;;;;;7.45;4.80;;;25.70;90.60;;;;;;7381646;19;20015;-76
2023/06/19 21:21:10;;;;;;;11.90;6.35;;;25.70;90.70;;;;;;7404069;19;20027;-77
2023/06/19 21:23:40;;;;;;;16.55;5.25;;;25.70;90.70;;;;;;7385203;19;20010;-76
2023/06/19 21:26:09;;;;;;;6.88;4.22;;;25.70;90.80;;;;;;7383979;19;20010;-77
2023/06/19 21:28:41;;;;;;;9.77;4.00;;;25.70;90.90;;;;;;7385379;19;20011;-76
2023/06/19 21:31:12;;;;;;;88.05;56.80;;;25.70;91.00;;;;;;7385829;19;20034;-77
2023/06/19 21:33:41;;;;;;;319.42;211.18;;;25.60;90.90;;;;;;7382949;19;20015;-76
2023/06/19 21:36:14;;;;;;;174.75;113.82;;;25.70;90.90;;;;;;7406247;19;20006;-78
2023/06/19 21:38:43;;;;;;;41.83;26.77;;;25.70;90.90;;;;;;7387204;19;19999;-78
2023/06/19 22:17:20;;;;;;;16.73;9.68;;;25.20;90.00;;;;;;7411833;19;20050;-78
2023/06/19 22:19:50;;;;;;;8.65;2.90;;;25.20;90.10;;;;;;7381435;19;20437;-76
2023/06/19 22:22:21;;;;;;;7.60;2.30;;;25.20;90.00;;;;;;7382379;19;20010;-79
2023/06/19 22:24:50;;;;;;;9.68;2.63;;;25.20;90.10;;;;;;7379899;19;20362;-74
2023/06/19 22:27:19;;;;;;;3.63;1.80;;;25.20;90.10;;;;;;7407084;19;20007;-76
2023/06/19 22:29:48;;;;;;;6.22;2.50;;;25.20;90.10;;;;;;7381033;19;20002;-76
2023/06/19 22:32:19;;;;;;;4.05;1.92;;;25.20;90.20;;;;;;7381270;19;20015;-76
2023/06/19 22:34:48;;;;;;;3.78;1.88;;;25.20;90.30;;;;;;7380414;19;20027;-76
2023/06/19 22:37:17;;;;;;;2.80;1.83;;;25.20;90.20;;;;;;7381502;19;20727;-76
2023/06/19 22:39:45;;;;;;;4.30;2.40;;;25.20;90.20;;;;;;7380600;19;20362;-75
2023/06/19 22:42:14;;;;;;;6.03;2.10;;;25.20;90.20;;;;;;7401219;19;20291;-77
2023/06/19 22:44:43;;;;;;;2.38;1.70;;;25.20;90.30;;;;;;7380499;19;20015;-77
2023/06/19 22:47:11;;;;;;;3.90;1.85;;;25.20;90.30;;;;;;7381403;19;20075;-78
2023/06/19 22:49:43;;;;;;;6.30;2.03;;;25.20;90.30;;;;;;7382434;19;20006;-77
2023/06/19 22:52:12;;;;;;;3.88;1.90;;;25.30;90.30;;;;;;7383799;19;20082;-78
2023/06/19 22:54:41;;;;;;;10.38;2.20;;;25.20;90.30;;;;;;7381891;19;20002;-77
2023/06/19 22:57:10;;;;;;;14.63;9.45;;;25.20;90.40;;;;;;7405667;19;20398;-78
2023/06/19 22:59:38;;;;;;;14.43;8.23;;;25.20;90.40;;;;;;7386549;19;20014;-78
2023/06/19 23:02:07;;;;;;;20.42;12.55;;;25.20;90.40;;;;;;7388063;19;20031;-78
2023/06/19 23:04:36;;;;;;;9.32;5.43;;;25.20;90.40;;;;;;7384239;19;20059;-78
2023/06/19 23:07:08;;;;;;;12.18;3.70;;;25.10;90.50;;;;;;7384939;19;20039;-78
2023/06/19 23:09:37;;;;;;;7.43;2.30;;;25.10;90.40;;;;;;7382272;19;20069;-78
2023/06/19 23:12:06;;;;;;;6.30;2.92;;;25.10;90.50;;;;;;7403299;19;20007;-78
2023/06/19 23:14:35;;;;;;;7.63;2.92;;;25.10;90.50;;;;;;7383923;19;20007;-78
2023/06/19 23:17:04;;;;;;;7.32;2.88;;;25.10;90.50;;;;;;7386189;19;20002;-78
2023/06/19 23:19:33;;;;;;;5.45;3.10;;;25.10;90.60;;;;;;7386372;19;20007;-78
2023/06/19 23:22:02;;;;;;;2.03;1.80;;;25.00;90.60;;;;;;7383327;19;20014;-78
2023/06/19 23:24:33;;;;;;;10.63;2.33;;;25.00;90.70;;;;;;7385243;19;20007;-78
2023/06/19 23:27:01;;;;;;;;;;;25.00;90.70;;;;;;7404565;19;20010;-77
2023/06/19 23:29:32;;;;;;;10.02;2.03;;;25.00;90.70;;;;;;7382883;19;19938;-79
2023/06/19 23:32:01;;;;;;;4.07;2.10;;;25.00;90.80;;;;;;7385658;19;20014;-78
2023/06/19 23:34:32;;;;;;;12.32;2.30;;;25.00;90.80;;;;;;7383929;19;20282;-78
2023/06/19 23:37:00;;;;;;;12.47;1.83;;;25.00;90.80;;;;;;7385236;19;20013;-79
2023/06/19 23:39:29;;;;;;;14.77;2.30;;;25.00;90.90;;;;;;7386751;19;20259;-79
2023/06/19 23:42:01;;;;;;;5.13;1.80;;;24.90;90.90;;;;;;7406001;19;20066;-79
2023/06/19 23:44:29;;;;;;;3.03;1.80;;;24.90;91.00;;;;;;7386988;19;20027;-79
2023/06/19 23:46:58;;;;;;;8.85;2.20;;;24.90;91.00;;;;;;7386232;19;20011;-79
2023/06/19 23:49:27;;;;;;;7.15;1.95;;;24.90;91.00;;;;;;7385152;19;20018;-78
2023/06/19 23:51:55;;;;;;;6.60;2.10;;;24.90;91.00;;;;;;7381929;19;20024;-77
2023/06/19 23:54:26;;;;;;;7.80;1.95;;;24.90;91.10;;;;;;7383395;19;20017;-77
2023/06/19 23:56:54;;;;;;;11.27;1.63;;;24.80;91.10;;;;;;7407121;19;20028;-78
2023/06/19 23:59:26;;;;;;;3.88;1.60;;;24.80;91.20;;;;;;7386078;19;20031;-78
